Time;durP1;ratioP1;P1;durP2;ratioP2;P2;SDS_P1;SDS_P2;PMS_P1;PMS_P2;Temp;Humidity;BMP_temperature;BMP_pressure;BME280_temperature;BME280_humidity;BME280_pressure;Samples;Min_cycle;Max_cycle;Signal;HPM_P1;HPM_P2
2022/03/15 18:55:10;;;;;;;0.00;0.00;;;;;;;12.04;53.44;102421.84;5073869;27;20394;-82
2022/03/15 18:57:39;;;;;;;0.10;0.10;;;;;;;12.20;53.51;102426.25;5060322;28;20039;-82
2022/03/15 19:00:09;;;;;;;0.73;0.73;;;;;;;12.31;52.99;102428.88;5061768;28;20482;-81
2022/03/15 19:02:35;;;;;;;0.00;0.00;;;;;;;12.34;52.88;102418.25;5058854;28;20029;-82
2022/03/15 19:05:08;;;;;;;0.00;0.00;;;;;;;12.37;53.31;102414.69;5053834;28;20464;-84
2022/03/15 19:07:34;;;;;;;0.10;0.10;;;;;;;12.36;53.69;102416.50;5056139;28;20033;-83
2022/03/15 19:10:01;;;;;;;0.10;0.10;;;;;;;12.38;53.01;102424.44;5054608;28;20036;-82
2022/03/15 19:12:28;;;;;;;0.10;0.10;;;;;;;12.32;53.66;102432.44;5056162;28;20029;-82
2022/03/15 19:14:54;;;;;;;0.10;0.10;;;;;;;12.34;53.43;102431.53;5038041;28;20073;-82
2022/03/15 19:17:20;;;;;;;0.08;0.08;;;;;;;12.30;53.70;102425.34;5053595;28;20132;-85
2022/03/15 19:19:47;;;;;;;0.00;0.00;;;;;;;12.28;53.82;102428.91;5053704;28;20037;-83
2022/03/15 19:22:13;;;;;;;0.00;0.00;;;;;;;12.24;54.11;102433.31;5053088;28;20057;-82
2022/03/15 19:24:39;;;;;;;0.30;0.30;;;;;;;12.20;53.83;102434.22;5053896;28;20033;-83
2022/03/15 19:27:06;;;;;;;0.00;0.00;;;;;;;12.17;53.52;102434.22;5053950;28;20021;-82
2022/03/15 19:29:33;;;;;;;0.05;0.05;;;;;;;12.12;54.07;102441.31;5054048;28;20028;-80
2022/03/15 19:32:00;;;;;;;0.10;0.10;;;;;;;12.08;54.22;102439.56;5054602;28;20045;-81
2022/03/15 19:34:26;;;;;;;0.10;0.10;;;;;;;12.03;54.99;102441.34;5054417;28;20029;-82
2022/03/15 19:36:52;;;;;;;0.00;0.00;;;;;;;11.96;54.08;102444.00;5055128;28;20416;-82
2022/03/15 19:39:21;;;;;;;0.10;0.10;;;;;;;11.93;53.42;102445.72;5054459;28;20516;-85
2022/03/15 19:41:48;;;;;;;0.03;0.03;;;;;;;11.89;54.72;102447.50;5050765;28;20037;-83
2022/03/15 19:44:14;;;;;;;0.10;0.10;;;;;;;11.84;55.02;102449.25;5053536;28;20022;-82
2022/03/15 19:46:43;;;;;;;0.00;0.00;;;;;;;11.82;55.44;102446.63;5054229;28;20033;-84
2022/03/15 19:49:17;;;;;;;0.00;0.00;;;;;;;11.77;55.75;102447.47;5051243;28;20037;-83
2022/03/15 19:51:47;;;;;;;0.10;0.10;;;;;;;11.73;55.47;102443.94;5051083;28;20436;-82
2022/03/15 19:54:14;;;;;;;0.10;0.10;;;;;;;11.67;55.79;102453.69;5051615;28;20032;-83
2022/03/15 19:56:42;;;;;;;0.10;0.10;;;;;;;11.62;55.84;102449.22;5050212;28;20040;-83
2022/03/15 19:59:13;;;;;;;0.00;0.00;;;;;;;11.57;55.63;102453.66;5046891;28;20033;-83
2022/03/15 20:01:41;;;;;;;0.00;0.00;;;;;;;11.53;56.05;102457.19;5046741;28;20024;-83
2022/03/15 20:04:07;;;;;;;0.00;0.00;;;;;;;11.48;55.66;102462.47;5042108;28;20104;-83
2022/03/15 20:06:33;;;;;;;0.00;0.00;;;;;;;11.45;56.34;102459.84;5036589;28;20121;-82
2022/03/15 20:09:03;;;;;;;0.10;0.10;;;;;;;11.41;55.53;102471.31;5030272;28;20041;-82
2022/03/15 20:11:29;;;;;;;0.00;0.00;;;;;;;11.38;55.21;102468.66;5036231;28;20481;-81
2022/03/15 20:13:57;;;;;;;0.00;0.00;;;;;;;11.36;55.60;102472.19;5034039;28;20405;-82
2022/03/15 20:16:24;;;;;;;0.00;0.00;;;;;;;11.33;55.55;102476.59;5033734;28;20061;-81
2022/03/15 20:18:50;;;;;;;0.00;0.00;;;;;;;11.30;55.96;102468.63;5037222;28;20033;-80
2022/03/15 20:21:18;;;;;;;0.03;0.03;;;;;;;11.28;56.16;102477.47;5038258;28;20029;-81
2022/03/15 20:23:51;;;;;;;0.10;0.10;;;;;;;11.25;55.88;102481.00;5037625;28;20048;-81
2022/03/15 20:26:19;;;;;;;0.38;0.38;;;;;;;11.23;55.82;102480.09;5031921;28;20029;-81
2022/03/15 20:28:45;;;;;;;0.10;0.10;;;;;;;11.21;56.14;102479.19;5034017;28;20033;-83
2022/03/15 20:31:14;;;;;;;0.00;0.00;;;;;;;11.19;56.54;102482.72;5037414;28;20022;-82
2022/03/15 20:33:40;;;;;;;0.10;0.10;;;;;;;11.14;56.49;102483.63;5037920;28;20053;-82
2022/03/15 20:36:06;;;;;;;0.10;0.10;;;;;;;11.12;56.59;102490.66;5033461;28;20045;-82
2022/03/15 20:38:33;;;;;;;0.00;0.00;;;;;;;11.10;56.40;102491.53;5038247;28;20047;-81
2022/03/15 20:41:00;;;;;;;0.10;0.10;;;;;;;11.08;56.03;102501.25;5037052;28;20037;-81
2022/03/15 20:46:12;;;;;;;0.57;0.50;;;;;;;11.03;56.89;102503.00;5032866;28;20041;-83
2022/03/15 20:48:40;;;;;;;0.30;0.30;;;;;;;10.99;57.03;102494.13;5037918;28;20550;-81
2022/03/15 20:51:07;;;;;;;0.30;0.30;;;;;;;10.95;57.22;102501.22;5035081;28;20060;-83
2022/03/15 20:53:33;;;;;;;0.00;0.00;;;;;;;10.91;57.34;102506.50;5035605;28;20025;-81
2022/03/15 20:56:08;;;;;;;0.00;0.00;;;;;;;10.88;57.86;102507.38;5035662;28;20090;-81
2022/03/15 20:58:35;;;;;;;0.00;0.00;;;;;;;10.86;57.60;102513.53;5036567;28;20032;-82
2022/03/15 21:01:04;;;;;;;0.00;0.00;;;;;;;10.81;57.43;102502.91;5034743;28;20048;-82
2022/03/15 21:03:33;;;;;;;0.20;0.20;;;;;;;10.78;56.95;102505.50;5039792;28;20183;-82
2022/03/15 21:05:59;;;;;;;0.10;0.10;;;;;;;10.75;56.83;102509.03;5029418;28;20043;-83
2022/03/15 21:08:35;;;;;;;0.00;0.00;;;;;;;10.73;57.37;102501.94;5034982;28;20025;-83
2022/03/15 21:11:03;;;;;;;0.00;0.00;;;;;;;10.71;57.30;102506.38;5031166;28;20117;-82
2022/03/15 21:13:32;;;;;;;0.10;0.10;;;;;;;10.67;57.52;102508.13;5033598;28;20029;-82
2022/03/15 21:15:59;;;;;;;0.10;0.10;;;;;;;10.63;58.09;102507.22;5031745;28;20037;-83
2022/03/15 21:18:27;;;;;;;0.10;0.10;;;;;;;10.60;57.59;102512.47;5036428;28;20112;-83
2022/03/15 21:20:54;;;;;;;0.10;0.10;;;;;;;10.56;58.72;102507.16;5041621;28;20471;-82
2022/03/15 21:23:26;;;;;;;0.20;0.20;;;;;;;10.53;58.08;102516.00;5042094;28;20042;-82
2022/03/15 21:25:54;;;;;;;0.03;0.03;;;;;;;10.52;57.41;102515.09;5040165;28;20036;-82
2022/03/15 21:28:22;;;;;;;0.38;0.38;;;;;;;10.52;57.49;102522.16;5034334;28;20420;-81
2022/03/15 21:30:50;;;;;;;0.10;0.10;;;;;;;10.49;59.27;102530.97;5034488;28;20037;-81
2022/03/15 21:33:19;;;;;;;0.35;0.35;;;;;;;10.48;58.42;102526.53;5044854;28;20021;-81
2022/03/15 21:35:47;;;;;;;0.00;0.00;;;;;;;10.41;60.14;102521.19;5016894;28;20029;-81
2022/03/15 21:38:16;;;;;;;0.10;0.10;;;;;;;10.40;59.82;102524.72;5030503;28;20065;-83
2022/03/15 21:40:43;;;;;;;0.10;0.10;;;;;;;10.38;59.19;102530.00;5038075;28;20037;-82
2022/03/15 21:43:09;;;;;;;0.08;0.08;;;;;;;10.35;59.79;102530.84;5035924;28;20017;-82
2022/03/15 21:45:37;;;;;;;0.10;0.10;;;;;;;10.33;59.25;102532.56;5041386;28;20496;-82
2022/03/15 21:48:07;;;;;;;0.00;0.00;;;;;;;10.34;59.77;102529.06;5040082;28;20040;-82
2022/03/15 21:50:42;;;;;;;0.10;0.10;;;;;;;10.33;60.07;102529.03;5038155;28;20040;-81
2022/03/15 21:53:10;;;;;;;0.10;0.10;;;;;;;10.32;60.53;102533.44;5041330;28;20052;-82
2022/03/15 21:55:50;;;;;;;0.10;0.10;;;;;;;10.32;60.09;102532.56;5038786;28;20044;-83
2022/03/15 21:58:18;;;;;;;0.08;0.08;;;;;;;10.31;60.59;102531.66;5035582;28;20400;-83
2022/03/15 22:00:46;;;;;;;0.28;0.28;;;;;;;10.28;60.71;102529.00;5038044;28;20116;-82
2022/03/15 22:03:12;;;;;;;0.30;0.30;;;;;;;10.32;59.79;102522.84;5041305;28;20471;-83
2022/03/15 22:05:38;;;;;;;0.10;0.10;;;;;;;10.34;59.76;102530.81;5039938;28;20029;-82
2022/03/15 22:08:05;;;;;;;0.00;0.00;;;;;;;10.29;59.58;102522.84;5041497;28;20130;-83
2022/03/15 22:10:31;;;;;;;0.30;0.30;;;;;;;10.25;60.07;102525.44;5040735;28;20032;-83
2022/03/15 22:12:58;;;;;;;0.13;0.13;;;;;;;10.22;59.41;102530.69;5056865;28;20026;-82
2022/03/15 22:15:24;;;;;;;0.35;0.35;;;;;;;10.19;59.84;102520.97;5042066;28;20052;-82
2022/03/15 22:17:55;;;;;;;0.10;0.10;;;;;;;10.18;59.87;102521.84;5040159;28;20473;-83
2022/03/15 22:20:23;;;;;;;0.00;0.00;;;;;;;10.15;59.90;102521.81;5039111;28;20135;-83
2022/03/15 22:22:53;;;;;;;0.00;0.00;;;;;;;10.14;60.36;102522.69;5037577;28;20025;-84
2022/03/15 22:25:20;;;;;;;0.10;0.10;;;;;;;10.13;59.63;102526.22;5038322;28;20037;-84
2022/03/15 22:27:46;;;;;;;0.00;0.00;;;;;;;10.10;59.95;102526.19;5036511;28;20033;-83
2022/03/15 23:17:18;;;;;;;0.68;0.63;;;;;;;9.69;61.83;102541.69;5036237;28;20146;-83
2022/03/15 23:22:38;;;;;;;1.00;1.00;;;;;;;9.64;61.13;102532.78;5032237;28;20423;-83
2022/03/15 23:27:46;;;;;;;1.75;0.63;;;;;;;9.60;61.44;102541.56;5111962;27;20335;-80
2022/03/15 23:30:15;;;;;;;0.10;0.10;;;;;;;9.57;61.24;102541.56;5090083;28;20021;-80
2022/03/15 23:32:42;;;;;;;0.50;0.50;;;;;;;9.58;61.31;102538.00;5099763;28;20581;-81
2022/03/15 23:35:10;;;;;;;0.20;0.20;;;;;;;9.56;61.26;102529.19;5099731;28;20015;-84
2022/03/15 23:37:36;;;;;;;0.85;0.85;;;;;;;9.55;61.93;102532.69;5091377;28;20039;-84
2022/03/15 23:40:05;;;;;;;1.95;1.17;;;;;;;9.59;61.28;102541.56;5090635;28;20059;-83
2022/03/15 23:42:32;;;;;;;0.10;0.10;;;;;;;9.52;60.83;102532.66;5090170;28;20032;-83
2022/03/15 23:44:58;;;;;;;0.08;0.08;;;;;;;9.53;61.38;102545.00;5094865;28;20071;-84
2022/03/15 23:47:24;;;;;;;0.00;0.00;;;;;;;9.52;61.34;102543.22;5093750;28;20036;-83
2022/03/15 23:49:50;;;;;;;0.10;0.10;;;;;;;9.52;61.04;102540.59;5093014;28;20039;-84
2022/03/15 23:52:18;;;;;;;1.17;1.08;;;;;;;9.51;61.02;102552.06;5103648;28;20020;-84
2022/03/15 23:54:46;;;;;;;0.10;0.10;;;;;;;9.50;60.70;102561.75;5094406;28;20047;-84
2022/03/15 23:57:12;;;;;;;0.00;0.00;;;;;;;9.48;60.90;102552.91;5101267;28;20051;-83
2022/03/15 23:59:38;;;;;;;0.00;0.00;;;;;;;9.45;60.77;102555.50;5095657;28;20107;-84
